Baie-Sainte-Catherine, Canada
Current Conditions -  °F | °C
As of 11:00 AM on Wednesday 22 Oct 2014 (Local Time) from CYBG Reporting Station
Few Clouds Few Clouds  
Wind Chill: 36°   Ceiling: Unl
Heat Index: 43°   Visibility: 25mi
Dew Point: 34°   Wind: 14mph
Humidity: 70%   Direction: 110°ESE
Pressure: 30.48"   Gusts: NA
Location:  48.1°N, 69.73°W
Report Text: CYBG 221500Z 11012KT 25SM FEW017 06/01 A3048 RMK SC1 SLP329
Loading
Personal Weather Stations






























Interactive Weather Map
Tropical Storm Tracking
New forecast layout! Learn more

10-Day Weather Forecast

Advertisements
Track Severe Weather on mobile